world map with OGU marked

OGU - Airport

This information may not be accurate or current and is not valid for navigation or flight planning. No warranty of fitness for any purpose is made or implied.

flag of Turkey

Donate via PayPal

Additional information is available on the NEW Great Circle Mapper

Location
City:  Ordu/Giresun, Giresun, Turkey
Near (Alt.):Gülyali
Name:Ordu Giresun Airport
ICAO / IATA:LTCB / OGU

Details
Type:Airport (Aerodrome, Airfield)
Use:Public/Civil
Latitude:40°58'00"N (40.966667)
Longitude:38°04'00"E (38.066667)
Elevation:18 ft (5 m)
Runways:1
Longest:9843 × 148 ft (3000 × 45 m)

Time
Timezone:UTC+3 (DST+5)
Local Time:

Weather
METAR:LTCB  041350Z 10005KT CAVOK 10/06 Q1024
TAF:LTCB  (expired)

Related Locations
Nearby:
Farthest:NEMO: 11381 mi / 18315 km
Pacific Ocean [Oceanic Pole of Inaccessibility (Point Nemo)]

Find:

   beyond  
but within

Other Information
Maps:
Sources:

  


 


Great Circle Mapper   Great Circle Mapper
Great Circle Mapper FAQ   Great Circle Mapper FAQ
  Karl's Home Page
KLS˛   KLS˛ Home
   GC on Facebook
Airlines of the World   Airlines of the World
Donate via PayPal


Copyright © 2004-2019, Karl L. Swartz. All rights reserved.
All trademarks mentioned herein belong to their respective owners.

Please see credits for attribution and copyright information.

Karl Swartz <karl@kls2.com>
  Powered by FreeBSD
Valid HTML 4.01!
Labeled with ICRA
hCard Microformat
Geo Microformat